Aguilares, Texas
Current Conditions -  °F | °C
As of 2:15 PM on Wednesday 26 Nov 2014 (Local Time) from KHBV Reporting Station
Clear Clear  
Wind Chill: 73°   Ceiling: Unl
Heat Index: 73°   Visibility: 10mi
Dew Point: 31°   Wind: 7mph
Humidity: 21%   Direction: 200°SSW
Pressure: 30.21"   Gusts: NA
Location:  27.4459°N, 99.0184°W
Report Text: KHBV 262015Z AUTO 20006KT 10SM CLR 23/M01 A3021 RMK AO2 T02271006
Loading
Personal Weather Stations






























Interactive Weather Map New forecast layout! Learn more

10-Day Weather Forecast

Advertisements
Track Severe Weather on mobile